Time;durP1;ratioP1;P1;durP2;ratioP2;P2;SDS_P1;SDS_P2;PMS_P1;PMS_P2;Temp;Humidity;BMP_temperature;BMP_pressure;BME280_temperature;BME280_humidity;BME280_pressure;Samples;Min_cycle;Max_cycle;Signal;HPM_P1;HPM_P2
2021/09/25 00:09:15;;;;;;;143.17;130.40;;;17.20;99.90;;;;;;5051921;28;20405;-83
2021/09/25 00:12:56;;;;;;;200.27;185.20;;;17.10;99.90;;;;;;5063220;28;20394;-83
2021/09/25 00:15:02;;;;;;;184.53;169.83;;;17.10;99.90;;;;;;5048329;28;20411;-83
2021/09/25 00:18:11;;;;;;;254.80;237.53;;;17.10;99.90;;;;;;5061199;28;20461;-83
2021/09/25 00:20:44;;;;;;;181.37;166.87;;;17.10;99.90;;;;;;5059571;28;20411;-83
2021/09/25 00:23:44;;;;;;;254.37;236.70;;;17.10;99.90;;;;;;5060817;28;20505;-83
2021/09/25 00:26:30;;;;;;;213.00;197.47;;;17.00;99.90;;;;;;5060577;28;20435;-83
2021/09/25 00:29:14;;;;;;;220.27;204.30;;;16.90;99.90;;;;;;5060267;28;20481;-84
2021/09/25 00:32:20;;;;;;;224.37;208.33;;;16.90;99.90;;;;;;5060597;28;20386;-83
2021/09/25 00:35:12;;;;;;;215.67;200.10;;;16.90;99.90;;;;;;5060163;28;20402;-83
2021/09/25 00:38:46;;;;;;;211.03;195.43;;;16.90;99.90;;;;;;5041674;28;20449;-83
2021/09/25 00:41:11;;;;;;;198.47;183.23;;;16.90;99.90;;;;;;5046934;28;20440;-83
2021/09/25 00:43:37;;;;;;;192.30;177.70;;;16.80;99.90;;;;;;5173072;22;20480;-87
2021/09/25 00:46:03;;;;;;;183.93;169.53;;;16.80;99.90;;;;;;5038516;28;20927;-87
2021/09/25 00:48:28;;;;;;;190.80;175.80;;;16.80;99.90;;;;;;5056551;28;20425;-87
2021/09/25 00:50:54;;;;;;;155.43;141.93;;;16.80;99.90;;;;;;5056667;28;20163;-87
2021/09/25 00:53:20;;;;;;;184.30;169.70;;;16.70;99.90;;;;;;5056609;28;20163;-87
2021/09/25 00:55:47;;;;;;;222.73;206.23;;;16.70;99.90;;;;;;5038475;28;20785;-87
2021/09/25 00:58:13;;;;;;;238.10;221.27;;;16.60;99.90;;;;;;5056064;28;20728;-87
2021/09/25 01:00:39;;;;;;;173.70;159.63;;;16.60;99.90;;;;;;5056119;28;20402;-87
2021/09/25 01:03:04;;;;;;;169.17;155.27;;;16.60;99.90;;;;;;5038763;28;20166;-87
2021/09/25 01:05:31;;;;;;;169.23;155.37;;;16.60;99.90;;;;;;5038181;28;20259;-87
2021/09/25 01:07:57;;;;;;;207.53;191.70;;;16.50;99.90;;;;;;5055929;28;20191;-87
2021/09/25 01:10:23;;;;;;;181.97;167.33;;;16.60;99.90;;;;;;5039249;28;20421;-87
2021/09/25 01:12:49;;;;;;;172.43;157.97;;;16.50;99.90;;;;;;5038049;28;20417;-87
2021/09/25 01:15:15;;;;;;;175.10;160.73;;;16.50;99.90;;;;;;5055957;28;20407;-87
2021/09/25 01:17:42;;;;;;;190.57;175.57;;;16.50;99.90;;;;;;5055380;28;20194;-87
2021/09/25 01:20:09;;;;;;;206.97;191.10;;;16.40;99.90;;;;;;5055162;28;20398;-87
2021/09/25 01:22:35;;;;;;;185.47;170.63;;;16.40;99.90;;;;;;5037953;28;20464;-87
2021/09/25 01:25:01;;;;;;;153.73;140.57;;;16.40;99.90;;;;;;5037944;28;20409;-87
2021/09/25 01:27:27;;;;;;;144.83;131.87;;;16.40;99.90;;;;;;5038272;28;20444;-87
2021/09/25 01:29:52;;;;;;;142.90;130.13;;;16.40;99.90;;;;;;5055863;28;20245;-87
2021/09/25 01:32:19;;;;;;;159.73;146.20;;;16.40;99.90;;;;;;5037932;28;20223;-87
2021/09/25 01:34:45;;;;;;;170.50;156.70;;;16.30;99.90;;;;;;5037730;28;20172;-87
2021/09/25 01:37:11;;;;;;;166.57;152.27;;;16.30;99.90;;;;;;5055318;28;20548;-87
2021/09/25 01:39:37;;;;;;;162.93;148.97;;;16.30;99.90;;;;;;5055723;28;20431;-87
2021/09/25 01:42:04;;;;;;;141.50;128.83;;;16.30;99.90;;;;;;5037474;28;20442;-87
2021/09/25 01:44:30;;;;;;;131.93;119.53;;;16.20;99.90;;;;;;5037781;28;20171;-87
2021/09/25 01:47:00;;;;;;;141.03;128.07;;;16.20;99.90;;;;;;5037639;28;20434;-87
2021/09/25 01:49:26;;;;;;;164.87;150.57;;;16.20;99.90;;;;;;5055638;28;20413;-87
2021/09/25 01:51:52;;;;;;;118.83;107.13;;;16.20;99.90;;;;;;5037334;28;20420;-87
2021/09/25 01:54:21;;;;;;;124.80;112.73;;;16.10;99.90;;;;;;5037319;28;20415;-87
2021/09/25 01:56:47;;;;;;;151.30;138.20;;;16.10;99.90;;;;;;5037082;28;20451;-87
2021/09/25 01:59:12;;;;;;;149.77;136.67;;;16.10;99.90;;;;;;5055053;28;20454;-87
2021/09/25 02:01:39;;;;;;;135.50;122.83;;;16.10;99.90;;;;;;5055038;28;20414;-87
2021/09/25 02:04:05;;;;;;;151.37;137.80;;;16.00;99.90;;;;;;5037528;28;20624;-87
2021/09/25 02:06:31;;;;;;;162.73;148.77;;;16.10;99.90;;;;;;5036982;28;20427;-87
2021/09/25 02:08:57;;;;;;;167.80;154.00;;;16.00;99.90;;;;;;5037084;28;20823;-87
2021/09/25 02:11:24;;;;;;;178.00;163.47;;;16.00;99.90;;;;;;5055143;28;20814;-87
2021/09/25 02:13:50;;;;;;;152.57;139.07;;;16.00;99.90;;;;;;5054877;28;20166;-87
2021/09/25 02:16:16;;;;;;;171.47;157.20;;;16.00;99.90;;;;;;5054611;28;20876;-87
2021/09/25 02:18:41;;;;;;;208.17;192.57;;;15.90;99.90;;;;;;5054988;28;20164;-87
2021/09/25 02:21:07;;;;;;;188.30;173.17;;;15.90;99.90;;;;;;5054724;28;20760;-87
2021/09/25 02:23:33;;;;;;;169.57;155.37;;;15.90;99.90;;;;;;5055456;28;20406;-87
2021/09/25 02:26:00;;;;;;;225.00;208.17;;;15.90;99.90;;;;;;5054539;28;20245;-87
2021/09/25 02:28:27;;;;;;;202.30;186.80;;;15.80;99.90;;;;;;5054688;28;20448;-87
2021/09/25 02:30:54;;;;;;;171.73;157.43;;;15.90;99.90;;;;;;5054062;28;20454;-87
2021/09/25 02:33:20;;;;;;;229.07;212.27;;;15.80;99.90;;;;;;5036880;28;20921;-87
2021/09/25 02:35:45;;;;;;;207.03;191.43;;;15.80;99.90;;;;;;5054653;28;20505;-87
2021/09/25 02:38:12;;;;;;;245.97;228.80;;;15.80;99.90;;;;;;5054197;28;20201;-87
2021/09/25 02:40:38;;;;;;;219.67;203.67;;;15.80;99.90;;;;;;5054576;28;20624;-87
2021/09/25 02:43:04;;;;;;;186.20;171.40;;;15.80;99.90;;;;;;5054094;28;20420;-87
2021/09/25 02:45:30;;;;;;;190.60;175.60;;;15.80;99.90;;;;;;5054219;28;20407;-87
2021/09/25 02:47:56;;;;;;;220.23;203.80;;;15.70;99.90;;;;;;5036425;28;20511;-87
2021/09/25 02:50:22;;;;;;;256.90;238.63;;;15.70;99.90;;;;;;5054070;28;20487;-87
2021/09/25 02:52:48;;;;;;;226.80;210.37;;;15.70;99.90;;;;;;5036167;28;20565;-87
2021/09/25 02:55:14;;;;;;;273.87;255.27;;;15.70;99.90;;;;;;5036116;28;20414;-87
2021/09/25 02:57:41;;;;;;;229.57;212.93;;;15.60;99.90;;;;;;5054105;28;20200;-87
2021/09/25 03:00:11;;;;;;;223.43;207.13;;;15.60;99.90;;;;;;5053920;28;20970;-87
2021/09/25 03:02:40;;;;;;;195.07;179.93;;;15.60;99.90;;;;;;5053866;28;20891;-87
2021/09/25 03:05:06;;;;;;;215.97;199.47;;;15.60;99.90;;;;;;5035948;28;20412;-87
2021/09/25 03:07:32;;;;;;;167.90;152.87;;;15.60;99.90;;;;;;5053603;28;20434;-87
2021/09/25 03:09:58;;;;;;;212.27;196.00;;;15.50;99.90;;;;;;5019474;28;20411;-87
2021/09/25 03:12:23;;;;;;;226.97;210.03;;;15.50;99.90;;;;;;5054063;28;20421;-87
2021/09/25 03:14:49;;;;;;;192.43;176.93;;;15.50;99.90;;;;;;5035940;28;20178;-87
2021/09/25 03:17:15;;;;;;;153.77;140.27;;;15.50;99.90;;;;;;5053561;28;20194;-87
2021/09/25 03:19:42;;;;;;;130.20;117.70;;;15.50;99.90;;;;;;5035688;28;20175;-87
2021/09/25 03:22:08;;;;;;;157.33;143.50;;;15.50;99.90;;;;;;5053597;28;20740;-87
2021/09/25 03:24:34;;;;;;;151.10;137.77;;;15.40;99.90;;;;;;5053478;28;20746;-87
2021/09/25 03:27:00;;;;;;;176.70;161.50;;;15.40;99.90;;;;;;5053351;28;20432;-87
2021/09/25 03:29:28;;;;;;;173.07;158.13;;;15.40;99.90;;;;;;5053458;28;20405;-88
2021/09/25 03:31:54;;;;;;;164.73;150.23;;;15.30;99.90;;;;;;5035451;28;20169;-87
2021/09/25 03:34:20;;;;;;;131.57;118.93;;;15.30;99.90;;;;;;5035480;28;20419;-87
2021/09/25 03:36:45;;;;;;;150.13;136.77;;;15.30;99.90;;;;;;5035343;28;20203;-87
2021/09/25 03:39:11;;;;;;;116.23;104.33;;;15.30;99.90;;;;;;5054391;28;20205;-87
2021/09/25 03:41:37;;;;;;;124.10;111.93;;;15.30;99.90;;;;;;5052437;28;20161;-87
2021/09/25 03:44:03;;;;;;;119.43;107.43;;;15.20;99.90;;;;;;5054290;28;20547;-87
2021/09/25 03:46:29;;;;;;;138.30;125.60;;;15.20;99.90;;;;;;5053125;28;21875;-86
2021/09/25 03:48:55;;;;;;;146.03;132.63;;;15.20;99.90;;;;;;5053131;28;20495;-87
2021/09/25 03:51:21;;;;;;;135.63;123.00;;;15.20;99.90;;;;;;5053169;28;20231;-87
2021/09/25 03:53:46;;;;;;;133.63;120.77;;;15.20;99.90;;;;;;5035748;28;20169;-87
2021/09/25 03:56:13;;;;;;;128.87;116.43;;;15.10;99.90;;;;;;5035082;28;20168;-87
2021/09/25 03:58:40;;;;;;;163.13;148.83;;;15.10;99.90;;;;;;5035402;28;20239;-87
2021/09/25 04:01:07;;;;;;;192.13;176.60;;;15.10;99.90;;;;;;5053330;28;20463;-87
2021/09/25 04:03:32;;;;;;;176.60;161.77;;;15.10;99.90;;;;;;5035428;28;20408;-87
2021/09/25 04:06:01;;;;;;;192.73;177.73;;;15.10;99.90;;;;;;5053277;28;20413;-87
2021/09/25 04:08:27;;;;;;;199.03;183.60;;;15.10;99.90;;;;;;5052918;28;20215;-87
2021/09/25 04:10:52;;;;;;;347.97;326.47;;;14.90;99.90;;;;;;5052976;28;20498;-87
2021/09/25 04:13:18;;;;;;;359.97;338.50;;;14.80;99.90;;;;;;5053214;28;20839;-87
2021/09/25 04:15:44;;;;;;;353.33;332.10;;;14.80;99.90;;;;;;5053099;28;20175;-87
2021/09/25 04:18:09;;;;;;;349.77;328.33;;;14.80;99.90;;;;;;5052778;28;20196;-87
2021/09/25 04:20:36;;;;;;;253.53;235.40;;;14.70;99.90;;;;;;5053110;28;20662;-87
2021/09/25 04:23:02;;;;;;;280.57;261.90;;;14.70;99.90;;;;;;5053088;28;20170;-87
2021/09/25 04:25:30;;;;;;;220.00;203.37;;;14.70;99.90;;;;;;5052732;28;20438;-87
2021/09/25 04:27:57;;;;;;;246.93;229.17;;;14.80;99.90;;;;;;5052697;28;20788;-87
2021/09/25 04:30:23;;;;;;;268.53;250.20;;;14.80;99.90;;;;;;5034910;28;20415;-87
2021/09/25 04:32:51;;;;;;;342.33;321.97;;;14.90;99.90;;;;;;5053029;28;20417;-87
2021/09/25 04:35:18;;;;;;;352.63;331.70;;;14.90;99.90;;;;;;5052973;28;20165;-87
2021/09/25 04:37:44;;;;;;;305.90;286.73;;;14.90;99.90;;;;;;5052578;28;20460;-87
2021/09/25 04:40:10;;;;;;;341.87;321.67;;;15.00;99.90;;;;;;5052656;28;20411;-87
2021/09/25 04:42:35;;;;;;;379.77;357.87;;;15.00;99.90;;;;;;5052471;28;21042;-87
2021/09/25 04:45:06;;;;;;;363.17;341.97;;;15.00;99.90;;;;;;5035160;28;20443;-87
2021/09/25 04:47:31;;;;;;;368.03;346.80;;;14.90;99.90;;;;;;5034585;28;21016;-87
2021/09/25 04:49:57;;;;;;;384.13;361.40;;;14.90;99.90;;;;;;5035017;28;20457;-87
2021/09/25 04:52:23;;;;;;;364.33;343.20;;;14.90;99.90;;;;;;5035205;28;20227;-87
2021/09/25 04:54:48;;;;;;;398.00;375.67;;;14.90;99.90;;;;;;5056309;28;20165;-87
2021/09/25 04:57:14;;;;;;;386.40;364.60;;;14.90;99.90;;;;;;5056113;28;20192;-87
2021/09/25 04:59:40;;;;;;;347.00;326.60;;;14.80;99.90;;;;;;5056213;28;20188;-87
2021/09/25 05:02:05;;;;;;;329.83;309.03;;;14.70;99.90;;;;;;5038604;28;20172;-87
2021/09/25 05:04:31;;;;;;;340.77;320.77;;;14.70;99.90;;;;;;5056062;28;20188;-87
2021/09/25 05:06:57;;;;;;;338.23;318.07;;;14.70;99.90;;;;;;5055997;28;20212;-87
2021/09/25 05:09:22;;;;;;;257.63;239.83;;;14.60;99.90;;;;;;5039033;28;20529;-87
2021/09/25 05:11:48;;;;;;;200.13;183.90;;;14.40;99.90;;;;;;5055987;28;20677;-87
2021/09/25 05:14:14;;;;;;;215.10;198.30;;;14.40;99.90;;;;;;5056166;28;20169;-87
2021/09/25 05:16:40;;;;;;;259.20;240.03;;;14.40;99.90;;;;;;5037855;28;20461;-87
2021/09/25 05:19:06;;;;;;;368.97;343.63;;;14.40;99.90;;;;;;5038000;28;20934;-87
2021/09/25 05:21:32;;;;;;;230.10;212.70;;;14.50;99.90;;;;;;5055841;28;20692;-87
2021/09/25 05:23:58;;;;;;;237.73;220.77;;;14.60;99.90;;;;;;5055984;28;20157;-87
2021/09/25 05:26:24;;;;;;;273.77;255.87;;;14.40;99.90;;;;;;5037911;28;20488;-87
2021/09/25 05:28:50;;;;;;;255.67;237.70;;;14.40;99.90;;;;;;5056561;28;20408;-87
2021/09/25 05:31:16;;;;;;;384.20;358.17;;;14.40;99.90;;;;;;5055908;28;20192;-87
2021/09/25 05:33:41;;;;;;;410.20;382.37;;;14.30;99.90;;;;;;5055678;28;20771;-87
2021/09/25 05:36:07;;;;;;;490.23;456.97;;;14.20;99.90;;;;;;5055879;28;20395;-87
2021/09/25 05:38:42;;;;;;;468.67;438.17;;;14.20;99.90;;;;;;5055389;28;20482;-87
2021/09/25 05:41:07;;;;;;;472.37;441.03;;;14.20;99.90;;;;;;5037993;28;20168;-88
2021/09/25 05:43:36;;;;;;;536.10;501.60;;;14.20;99.90;;;;;;5055495;28;20793;-88
2021/09/25 05:46:02;;;;;;;501.07;468.33;;;14.20;99.90;;;;;;5055462;28;20169;-88
2021/09/25 05:48:30;;;;;;;449.13;419.97;;;14.30;99.90;;;;;;5055320;28;20964;-88
2021/09/25 05:50:56;;;;;;;501.77;469.80;;;14.30;99.90;;;;;;5037392;28;20184;-88
2021/09/25 05:53:21;;;;;;;530.93;495.80;;;14.30;99.90;;;;;;5055507;28;20414;-88
2021/09/25 05:55:47;;;;;;;488.90;457.20;;;14.40;99.90;;;;;;5055838;28;20172;-88
2021/09/25 05:58:13;;;;;;;488.93;456.13;;;14.40;99.90;;;;;;5037547;28;20251;-87
2021/09/25 06:00:38;;;;;;;527.00;492.30;;;14.30;99.90;;;;;;5037246;28;20165;-88
2021/09/25 06:03:07;;;;;;;567.30;530.83;;;14.30;99.90;;;;;;5055016;28;20636;-87
2021/09/25 06:05:33;;;;;;;524.47;490.37;;;14.30;99.90;;;;;;5054177;28;20165;-88
2021/09/25 06:08:01;;;;;;;539.53;505.27;;;14.40;99.90;;;;;;5054824;28;20419;-88
2021/09/25 06:10:29;;;;;;;554.97;518.27;;;14.50;99.90;;;;;;5055119;28;20165;-88
2021/09/25 06:12:55;;;;;;;565.33;528.47;;;14.50;99.90;;;;;;5055108;28;20403;-87
2021/09/25 06:15:21;;;;;;;462.60;431.43;;;14.60;99.90;;;;;;5036896;28;20502;-87
2021/09/25 06:17:46;;;;;;;419.53;391.83;;;14.70;99.90;;;;;;5054727;28;20684;-88
2021/09/25 06:20:13;;;;;;;514.40;480.07;;;14.70;99.90;;;;;;5054732;28;20173;-88
2021/09/25 06:22:39;;;;;;;445.10;415.83;;;14.80;99.90;;;;;;5055051;28;20169;-88
2021/09/25 06:25:05;;;;;;;472.07;440.87;;;14.80;99.90;;;;;;5054567;28;20843;-88
2021/09/25 06:27:31;;;;;;;424.20;396.53;;;14.90;99.90;;;;;;5054791;28;20436;-88
2021/09/25 06:29:57;;;;;;;394.63;368.27;;;14.90;99.90;;;;;;5036661;28;20915;-88
2021/09/25 06:32:22;;;;;;;342.70;318.80;;;15.00;99.90;;;;;;5036591;28;20179;-88
2021/09/25 06:34:49;;;;;;;294.20;272.93;;;15.00;99.90;;;;;;5054972;28;20528;-88
2021/09/25 06:37:14;;;;;;;270.43;250.47;;;15.10;99.90;;;;;;5054226;28;20202;-88
2021/09/25 06:39:40;;;;;;;318.83;296.00;;;15.00;99.90;;;;;;5036982;28;20407;-88
2021/09/25 06:45:42;;;;;;;;;;;;;;;;;;;;;
2021/09/25 06:52:21;;;;;;;261.97;243.20;;;15.20;99.90;;;;;;5041453;28;20466;-83
2021/09/25 06:58:40;;;;;;;360.23;335.70;;;15.20;99.90;;;;;;5038482;28;20459;-83
2021/09/25 07:01:05;;;;;;;399.10;372.70;;;15.20;99.90;;;;;;5032750;28;20419;-81
2021/09/25 07:03:34;;;;;;;380.53;354.93;;;15.20;99.90;;;;;;5035418;28;20783;-82
2021/09/25 07:06:00;;;;;;;375.50;349.13;;;15.20;99.90;;;;;;5036444;28;20509;-82
2021/09/25 07:08:26;;;;;;;363.33;338.53;;;15.30;99.90;;;;;;5035904;28;20514;-82
2021/09/25 07:10:51;;;;;;;291.50;271.13;;;15.30;99.90;;;;;;5034971;28;20262;-82
2021/09/25 07:13:18;;;;;;;334.77;311.70;;;15.40;99.90;;;;;;5036555;28;20188;-82
2021/09/25 07:15:48;;;;;;;330.67;307.97;;;15.40;99.90;;;;;;5036095;28;20169;-82
2021/09/25 07:18:17;;;;;;;300.97;280.17;;;15.40;99.90;;;;;;5035814;28;20452;-82
2021/09/25 07:20:46;;;;;;;242.20;224.70;;;15.50;99.90;;;;;;5035879;28;20409;-82
2021/09/25 07:23:11;;;;;;;267.93;248.77;;;15.50;99.90;;;;;;5036033;28;20459;-82
2021/09/25 07:25:46;;;;;;;281.80;261.73;;;15.50;99.90;;;;;;5018867;28;20896;-82
2021/09/25 07:28:12;;;;;;;355.83;332.37;;;15.50;99.90;;;;;;5035976;28;20426;-82
2021/09/25 07:30:39;;;;;;;344.17;320.77;;;15.50;99.90;;;;;;5036080;28;20458;-82
2021/09/25 07:33:06;;;;;;;315.87;294.93;;;15.40;99.90;;;;;;5035948;28;20451;-82
2021/09/25 07:35:34;;;;;;;307.33;286.33;;;15.50;99.90;;;;;;5034398;28;20944;-82
2021/09/25 07:38:02;;;;;;;311.20;289.87;;;15.50;99.90;;;;;;5035565;28;20486;-82
2021/09/25 07:40:38;;;;;;;315.20;293.33;;;15.50;99.90;;;;;;5035834;28;20409;-82
2021/09/25 07:43:07;;;;;;;431.20;402.63;;;15.60;99.90;;;;;;5017743;28;20410;-82
2021/09/25 07:45:39;;;;;;;473.73;442.67;;;15.60;99.90;;;;;;5018069;28;20505;-82
2021/09/25 07:48:11;;;;;;;500.30;467.80;;;15.60;99.90;;;;;;5017567;28;20990;-82
2021/09/25 07:50:37;;;;;;;517.47;483.87;;;15.60;99.90;;;;;;5017889;28;20902;-82
2021/09/25 07:53:11;;;;;;;469.47;438.57;;;15.70;99.90;;;;;;5035505;28;20410;-82
2021/09/25 07:55:46;;;;;;;526.57;492.77;;;15.70;99.90;;;;;;5035370;28;20237;-82
2021/09/25 07:58:12;;;;;;;571.30;534.93;;;15.70;99.90;;;;;;5017738;28;20480;-82
2021/09/25 08:00:43;;;;;;;450.73;421.60;;;15.80;99.90;;;;;;5035723;28;20413;-82
2021/09/25 08:03:09;;;;;;;292.33;271.73;;;15.90;99.90;;;;;;5035427;28;20170;-82
2021/09/25 08:05:38;;;;;;;313.27;291.60;;;15.90;99.90;;;;;;5035755;28;20432;-82
2021/09/25 08:08:04;;;;;;;479.93;448.63;;;16.00;99.90;;;;;;5035505;28;20426;-82
2021/09/25 08:10:36;;;;;;;542.00;507.90;;;15.90;99.90;;;;;;5035098;28;20418;-82
2021/09/25 08:13:09;;;;;;;495.23;463.70;;;16.00;99.90;;;;;;5035258;28;20405;-82
2021/09/25 08:15:40;;;;;;;354.50;330.80;;;16.00;99.90;;;;;;5017571;28;20913;-82
2021/09/25 08:18:08;;;;;;;314.67;292.97;;;16.10;99.90;;;;;;5035909;28;20531;-82
2021/09/25 08:20:48;;;;;;;275.77;256.10;;;16.10;99.90;;;;;;5035359;28;20424;-82
2021/09/25 08:23:14;;;;;;;428.30;400.93;;;16.20;99.90;;;;;;5035716;28;20385;-82
2021/09/25 08:25:53;;;;;;;371.93;347.63;;;16.20;99.90;;;;;;5035515;28;20776;-82
2021/09/25 08:28:22;;;;;;;466.87;436.53;;;16.20;99.90;;;;;;5037870;28;20936;-82
2021/09/25 08:31:00;;;;;;;335.20;312.30;;;16.30;99.90;;;;;;5039285;28;20409;-82
2021/09/25 08:33:51;;;;;;;294.87;274.87;;;16.40;99.90;;;;;;5038841;28;20410;-82
2021/09/25 08:36:17;;;;;;;466.27;436.17;;;16.40;99.90;;;;;;5012330;28;20424;-82
2021/09/25 08:38:48;;;;;;;379.83;354.17;;;16.50;99.90;;;;;;5039531;28;20442;-82
2021/09/25 08:41:55;;;;;;;;;;;;;;;;;;;;;
2021/09/25 08:44:53;;;;;;;454.50;424.50;;;16.60;99.90;;;;;;5040184;28;20514;-83
2021/09/25 08:48:29;;;;;;;;;;;;;;;;;;;;;
2021/09/25 08:51:25;;;;;;;433.40;404.77;;;16.70;99.90;;;;;;5039819;28;20507;-83
2021/09/25 08:54:20;;;;;;;468.00;437.50;;;16.80;99.90;;;;;;5040006;28;20449;-83
2021/09/25 08:56:59;;;;;;;413.87;386.17;;;16.90;99.90;;;;;;5036966;28;20446;-83
2021/09/25 09:00:05;;;;;;;329.60;307.10;;;16.90;99.90;;;;;;5039646;28;20767;-83
2021/09/25 09:03:07;;;;;;;280.90;260.23;;;17.00;99.90;;;;;;5034821;28;20412;-83
2021/09/25 09:05:45;;;;;;;386.93;360.73;;;17.10;99.90;;;;;;5040168;28;20991;-83
2021/09/25 09:08:27;;;;;;;248.70;230.13;;;17.20;99.90;;;;;;5039338;28;20434;-83
2021/09/25 09:10:57;;;;;;;275.03;256.40;;;17.30;99.90;;;;;;5022065;28;20422;-83
2021/09/25 09:13:36;;;;;;;228.77;212.07;;;17.40;99.90;;;;;;5040012;28;20412;-83
2021/09/25 09:16:34;;;;;;;197.80;182.80;;;17.50;99.90;;;;;;5039599;28;20421;-83
2021/09/25 09:23:08;;;;;;;209.73;194.90;;;17.70;99.90;;;;;;5005862;28;20904;-82
2021/09/25 09:29:00;;;;;;;267.30;249.80;;;17.90;99.90;;;;;;4985754;28;20416;-83
2021/09/25 09:31:42;;;;;;;237.30;221.17;;;18.00;99.90;;;;;;5038957;28;20423;-82
2021/09/25 09:34:16;;;;;;;275.17;257.63;;;18.20;99.90;;;;;;5021724;28;20420;-83
2021/09/25 09:37:13;;;;;;;239.47;223.03;;;18.30;99.90;;;;;;5021908;28;20424;-82
2021/09/25 09:40:06;;;;;;;299.00;280.60;;;18.40;99.90;;;;;;5037751;28;20507;-83
2021/09/25 09:43:10;;;;;;;;;;;;;;;;;;;;;
2021/09/25 09:46:03;;;;;;;331.83;312.23;;;18.60;99.90;;;;;;5038437;28;20421;-82
2021/09/25 09:48:34;;;;;;;331.43;311.70;;;18.70;99.90;;;;;;5021427;28;20539;-83
2021/09/25 09:51:10;;;;;;;350.70;329.90;;;18.80;99.90;;;;;;5041858;28;20400;-82
2021/09/25 09:53:49;;;;;;;362.00;340.57;;;19.00;99.90;;;;;;5042506;28;20384;-83
2021/09/25 09:56:40;;;;;;;367.43;344.67;;;19.10;99.90;;;;;;5038618;28;20400;-82
2021/09/25 09:59:35;;;;;;;369.60;347.73;;;19.20;99.90;;;;;;5038322;28;20504;-83
2021/09/25 10:02:47;;;;;;;237.33;221.03;;;19.50;99.90;;;;;;5037009;28;20495;-83
2021/09/25 10:05:44;;;;;;;135.40;123.00;;;19.60;99.90;;;;;;5039066;28;20397;-83
2021/09/25 10:08:28;;;;;;;114.90;103.30;;;19.80;99.90;;;;;;5037909;28;20412;-83
2021/09/25 10:11:42;;;;;;;94.27;77.03;;;19.90;99.90;;;;;;5021138;28;20410;-83
2021/09/25 10:15:13;;;;;;;82.40;38.23;;;20.00;99.90;;;;;;4942131;29;20407;-83
2021/09/25 10:18:13;;;;;;;;;;;;;;;;;;;;;
2021/09/25 10:21:19;;;;;;;78.97;37.20;;;20.40;99.90;;;;;;4882403;29;20422;-83
2021/09/25 10:24:13;;;;;;;96.07;83.07;;;20.60;99.90;;;;;;4894835;29;20973;-83
2021/09/25 10:27:27;;;;;;;;;;;;;;;;;;;;;
2021/09/25 10:30:14;;;;;;;;;;;;;;;;;;;;;
2021/09/25 10:33:12;;;;;;;204.97;189.63;;;20.70;99.90;;;;;;5037933;28;20488;-83
2021/09/25 10:36:20;;;;;;;210.37;195.70;;;20.90;99.90;;;;;;5037771;28;20908;-83
2021/09/25 10:39:34;;;;;;;114.80;102.97;;;20.90;99.90;;;;;;5037339;28;20464;-83
2021/09/25 10:43:14;;;;;;;;;;;;;;;;;;;;;
2021/09/25 10:49:20;;;;;;;89.90;65.73;;;21.60;99.90;;;;;;5091352;22;20494;-82
2021/09/25 10:52:18;;;;;;;92.13;72.17;;;21.90;99.90;;;;;;4960066;28;20422;-83
2021/09/25 10:55:22;;;;;;;93.43;78.33;;;21.90;99.90;;;;;;4960308;28;20799;-83
2021/09/25 11:04:21;;;;;;;162.20;148.50;;;21.90;97.50;;;;;;4988755;28;20401;-82
2021/09/25 11:10:59;;;;;;;267.63;250.73;;;22.40;96.60;;;;;;4950421;29;20499;-82
2021/09/25 11:14:30;;;;;;;;;;;;;;;;;;;;;
2021/09/25 11:17:29;;;;;;;198.20;183.23;;;22.40;99.90;;;;;;5036332;28;20566;-83
2021/09/25 11:20:31;;;;;;;;;;;;;;;;;;;;;
2021/09/25 11:23:17;;;;;;;204.30;188.90;;;22.70;97.30;;;;;;5037446;28;20471;-83
2021/09/25 11:25:52;;;;;;;175.17;161.30;;;23.10;97.10;;;;;;5037521;28;20384;-83
2021/09/25 11:28:53;;;;;;;230.67;214.93;;;23.30;96.00;;;;;;5036785;28;20423;-83
2021/09/25 11:38:22;;;;;;;284.87;266.13;;;23.40;92.50;;;;;;5036992;28;20529;-82
2021/09/25 11:41:29;;;;;;;217.90;202.33;;;23.40;80.30;;;;;;5015078;28;20500;-83
2021/09/25 11:55:21;;;;;;;;;;;;;;;;;;;;;
2021/09/25 12:02:44;;;;;;;417.20;392.33;;;23.50;87.20;;;;;;4918260;29;20433;-82
2021/09/25 12:06:05;;;;;;;423.13;397.93;;;23.70;84.90;;;;;;4879737;29;20427;-82
2021/09/25 12:18:57;;;;;;;275.93;257.27;;;23.30;92.30;;;;;;4898808;29;20474;-83
2021/09/25 12:25:15;;;;;;;300.93;281.37;;;23.80;92.50;;;;;;5036943;28;20412;-83
2021/09/25 12:28:34;;;;;;;461.10;434.20;;;23.70;75.90;;;;;;5004408;28;20440;-83
2021/09/25 12:32:14;;;;;;;;;;;;;;;;;;;;;
2021/09/25 12:35:26;;;;;;;;;;;;;;;;;;;;;
2021/09/25 12:44:21;;;;;;;385.73;362.50;;;23.10;90.70;;;;;;5035443;28;20460;-82
2021/09/25 12:46:50;;;;;;;417.50;392.70;;;23.10;87.30;;;;;;5041845;28;20419;-82
2021/09/25 12:49:17;;;;;;;331.23;310.27;;;23.20;85.20;;;;;;5056470;28;20426;-82
2021/09/25 12:51:58;;;;;;;359.83;336.93;;;23.30;79.30;;;;;;5038317;28;20779;-82
2021/09/25 12:54:33;;;;;;;406.23;382.37;;;23.30;83.00;;;;;;5056927;28;20453;-81
2021/09/25 12:57:01;;;;;;;253.07;236.13;;;23.20;89.40;;;;;;5056327;28;20472;-81
2021/09/25 12:59:39;;;;;;;244.73;228.27;;;23.40;74.30;;;;;;5056850;28;20946;-82
2021/09/25 13:02:10;;;;;;;211.47;196.17;;;23.70;70.10;;;;;;5056794;28;20478;-82
2021/09/25 13:04:40;;;;;;;283.83;264.77;;;23.70;73.50;;;;;;5038503;28;20411;-82
2021/09/25 13:07:06;;;;;;;264.93;247.67;;;23.70;78.10;;;;;;5056599;28;20504;-82
2021/09/25 13:09:47;;;;;;;250.13;233.43;;;23.70;71.20;;;;;;5056466;28;20403;-82
2021/09/25 13:12:46;;;;;;;252.13;235.43;;;23.60;72.60;;;;;;5038484;28;20778;-82
2021/09/25 13:15:20;;;;;;;249.73;233.13;;;23.70;76.40;;;;;;5041442;28;20505;-82
2021/09/25 13:17:48;;;;;;;246.50;230.07;;;23.80;74.30;;;;;;5060176;28;20446;-82
2021/09/25 13:20:17;;;;;;;259.67;242.87;;;23.90;70.00;;;;;;5060317;28;20495;-82
2021/09/25 13:22:45;;;;;;;200.73;186.03;;;24.00;62.20;;;;;;5060172;28;20429;-82
2021/09/25 13:25:12;;;;;;;189.93;175.27;;;24.00;63.70;;;;;;5042506;28;20438;-82
2021/09/25 13:27:38;;;;;;;327.00;306.20;;;24.00;59.00;;;;;;5060417;28;20427;-82
2021/09/25 13:30:06;;;;;;;211.53;195.67;;;23.90;47.10;;;;;;5041627;28;20756;-82
2021/09/25 13:32:31;;;;;;;188.17;173.63;;;23.80;56.30;;;;;;5060273;28;20730;-82
2021/09/25 13:34:57;;;;;;;257.83;239.97;;;23.80;57.70;;;;;;5042307;28;20415;-82
2021/09/25 13:37:25;;;;;;;264.20;246.17;;;23.70;57.30;;;;;;5059543;28;20197;-82
2021/09/25 13:39:51;;;;;;;286.53;267.53;;;23.80;50.30;;;;;;5042062;28;20173;-82
2021/09/25 13:42:17;;;;;;;207.93;192.73;;;23.80;50.50;;;;;;5059129;28;20975;-82
2021/09/25 13:44:42;;;;;;;289.33;270.20;;;23.70;52.60;;;;;;5059519;28;20424;-82
2021/09/25 13:47:10;;;;;;;186.13;171.77;;;23.70;56.70;;;;;;5058980;28;20707;-81
2021/09/25 13:49:37;;;;;;;343.37;321.97;;;23.50;53.60;;;;;;5059001;28;20168;-82
2021/09/25 13:52:04;;;;;;;324.97;304.77;;;23.50;52.60;;;;;;5058283;28;20399;-81
2021/09/25 13:54:30;;;;;;;254.13;236.97;;;23.60;52.50;;;;;;5040027;28;20434;-81
2021/09/25 13:56:56;;;;;;;388.27;365.10;;;23.60;56.70;;;;;;5040240;28;20430;-81
2021/09/25 13:59:22;;;;;;;354.60;333.53;;;23.60;47.60;;;;;;5057707;28;20906;-81
2021/09/25 14:01:48;;;;;;;366.13;344.17;;;23.50;50.80;;;;;;5057751;28;20399;-81
2021/09/25 14:04:14;;;;;;;168.50;154.93;;;23.50;52.00;;;;;;5058565;28;20245;-82
2021/09/25 14:06:39;;;;;;;253.20;236.27;;;23.50;58.20;;;;;;5041231;28;20192;-81
2021/09/25 14:09:05;;;;;;;165.03;151.50;;;23.50;54.80;;;;;;5042096;28;20214;-82
2021/09/25 14:11:31;;;;;;;168.57;155.17;;;23.40;56.20;;;;;;5041160;28;20172;-82
2021/09/25 14:13:57;;;;;;;172.33;158.50;;;23.30;58.80;;;;;;5058841;28;20431;-82
2021/09/25 14:16:23;;;;;;;158.77;145.67;;;23.20;58.80;;;;;;5059444;28;20410;-82
2021/09/25 14:18:49;;;;;;;235.57;219.53;;;23.20;60.50;;;;;;5059255;28;20188;-82
2021/09/25 14:21:18;;;;;;;155.47;142.47;;;23.40;68.00;;;;;;5041138;28;20418;-82